Hiwassee Observed Data For Previous 48 Hours

Caption
Day and Hour Reservoir Elevation (behind dam)* Tailwater Elevation (below dam)* Average Hourly Discharge*
11/11/2018 2 AM EST 1,489.96 1,278.06 3,686
11/11/2018 3 AM EST 1,489.92 1,278.12 3,692
11/11/2018 4 AM EST 1,489.89 1,278.18 3,702
11/11/2018 5 AM EST 1,489.89 1,278.21 3,703
11/11/2018 6 AM EST 1,489.89 1,278.26 3,707
11/11/2018 7 AM EST 1,489.84 1,278.31 3,699
11/11/2018 8 AM EST 1,489.84 1,278.35 3,708
11/11/2018 9 AM EST 1,489.80 1,278.41 3,705
11/11/2018 10 AM EST 1,489.75 1,278.48 3,707
11/11/2018 11 AM EST 1,489.70 1,278.49 3,699
11/11/2018 12 PM EST 1,489.66 1,278.60 3,706
11/11/2018 1 PM EST 1,489.61 1,278.63 3,703
11/11/2018 2 PM EST 1,489.63 1,278.11 96
11/11/2018 3 PM EST 1,489.70 1,278.36 0
11/11/2018 4 PM EST 1,489.75 1,278.18 0
11/11/2018 5 PM EST 1,489.82 1,277.83 0
11/11/2018 6 PM EST 1,489.85 1,277.65 82
11/11/2018 7 PM EST 1,489.87 1,277.88 3,703
11/11/2018 8 PM EST 1,489.82 1,277.84 3,692
11/11/2018 9 PM EST 1,489.80 1,277.62 3,706
11/11/2018 10 PM EST 1,489.75 1,277.87 3,706
11/11/2018 11 PM EST 1,489.70 1,277.96 3,702
11/12/2018 12 AM EST 1,489.67 1,277.92 3,697
11/12/2018 1 AM EST 1,489.60 1,277.88 3,704
11/12/2018 2 AM EST 1,489.60 1,277.42 92
11/12/2018 3 AM EST 1,489.67 1,277.75 0
11/12/2018 4 AM EST 1,489.70 1,277.47 0
11/12/2018 5 AM EST 1,489.80 1,277.20 0
11/12/2018 6 AM EST 1,489.80 1,277.05 98
11/12/2018 7 AM EST 1,489.79 1,277.28 3,701
11/12/2018 8 AM EST 1,489.77 1,277.20 3,705
11/12/2018 9 AM EST 1,489.73 1,277.08 3,714
11/12/2018 10 AM EST 1,489.70 1,277.25 3,697
11/12/2018 11 AM EST 1,489.66 1,277.39 3,706
11/12/2018 12 PM EST 1,489.61 1,277.40 3,695
11/12/2018 1 PM EST 1,489.63 1,277.33 3,706
11/12/2018 2 PM EST 1,489.61 1,277.61 3,710
11/12/2018 3 PM EST 1,489.68 1,277.65 3,704
11/12/2018 4 PM EST 1,489.78 1,277.65 3,709
11/12/2018 5 PM EST 1,489.87 1,277.82 3,703
11/12/2018 6 PM EST 1,490.02 1,277.96 3,712
11/12/2018 7 PM EST 1,490.21 1,278.02 3,686
11/12/2018 8 PM EST 1,490.38 1,278.04 3,687
11/12/2018 9 PM EST 1,490.58 1,278.16 3,680
11/12/2018 10 PM EST 1,490.75 1,278.25 3,699
11/12/2018 11 PM EST 1,490.89 1,278.32 3,698
11/13/2018 12 AM EST 1,491.02 1,278.34 3,704
11/13/2018 1 AM EST 1,491.14 1,277.87 92
11/13/2018 2 AM EST 1,491.33 1,278.13 0
11/13/2018 3 AM EST 1,491.46 1,277.97 0
11/13/2018 4 AM EST 1,491.58 1,277.69 0
11/13/2018 5 AM EST 1,491.70 1,277.44 0
11/13/2018 6 AM EST 1,491.82 1,277.36 0
11/13/2018 7 AM EST 1,491.92 1,277.28 80
11/13/2018 8 AM EST 1,491.97 1,277.41 3,702
11/13/2018 9 AM EST 1,491.97 1,277.25 3,717
11/13/2018 10 AM EST 1,492.02 1,277.28 3,712
11/13/2018 11 AM EST 1,492.04 1,277.47 3,720

Elevations are in feet above sea level. Discharges are in cubic feet per second and are reported at the end of the hour.